sensor_id;sensor_type;location;lat;lon;timestamp;temperature;humidity
63371;DHT22;49504;48.336;14.472;2023-05-07T00:02:44;25.20;49.60
63371;DHT22;49504;48.336;14.472;2023-05-07T00:07:26;25.10;49.00
63371;DHT22;49504;48.336;14.472;2023-05-07T00:10:47;25.10;49.70
63371;DHT22;49504;48.336;14.472;2023-05-07T00:14:08;25.10;49.60
63371;DHT22;49504;48.336;14.472;2023-05-07T00:17:29;25.10;49.60
63371;DHT22;49504;48.336;14.472;2023-05-07T00:20:51;25.10;49.50
63371;DHT22;49504;48.336;14.472;2023-05-07T00:24:13;25.10;49.50
63371;DHT22;49504;48.336;14.472;2023-05-07T00:27:34;25.10;49.50
63371;DHT22;49504;48.336;14.472;2023-05-07T00:30:56;25.10;49.60
63371;DHT22;49504;48.336;14.472;2023-05-07T00:34:17;25.10;49.70
63371;DHT22;49504;48.336;14.472;2023-05-07T00:37:38;25.10;49.70
63371;DHT22;49504;48.336;14.472;2023-05-07T00:41:01;25.10;49.70
63371;DHT22;49504;48.336;14.472;2023-05-07T00:44:22;25.10;49.70
63371;DHT22;49504;48.336;14.472;2023-05-07T00:47:43;25.10;49.70
63371;DHT22;49504;48.336;14.472;2023-05-07T00:51:05;25.10;49.70
63371;DHT22;49504;48.336;14.472;2023-05-07T00:54:26;25.10;49.70
63371;DHT22;49504;48.336;14.472;2023-05-07T00:57:49;25.10;49.70
63371;DHT22;49504;48.336;14.472;2023-05-07T01:01:11;25.10;49.70
63371;DHT22;49504;48.336;14.472;2023-05-07T01:04:32;25.10;49.70
63371;DHT22;49504;48.336;14.472;2023-05-07T01:07:54;25.10;49.70
63371;DHT22;49504;48.336;14.472;2023-05-07T01:11:15;25.10;49.60
63371;DHT22;49504;48.336;14.472;2023-05-07T01:14:39;25.10;49.60
63371;DHT22;49504;48.336;14.472;2023-05-07T01:18:00;25.10;49.70
63371;DHT22;49504;48.336;14.472;2023-05-07T01:21:26;25.10;49.70
63371;DHT22;49504;48.336;14.472;2023-05-07T01:24:54;25.10;49.70
63371;DHT22;49504;48.336;14.472;2023-05-07T01:28:16;25.10;49.70
63371;DHT22;49504;48.336;14.472;2023-05-07T01:31:38;25.10;49.60
63371;DHT22;49504;48.336;14.472;2023-05-07T01:35:01;25.10;49.70
63371;DHT22;49504;48.336;14.472;2023-05-07T01:38:23;25.10;49.70
63371;DHT22;49504;48.336;14.472;2023-05-07T01:41:47;25.00;49.60
63371;DHT22;49504;48.336;14.472;2023-05-07T01:45:09;25.10;49.60
63371;DHT22;49504;48.336;14.472;2023-05-07T01:48:30;25.10;49.70
63371;DHT22;49504;48.336;14.472;2023-05-07T01:51:52;25.10;50.40
63371;DHT22;49504;48.336;14.472;2023-05-07T01:55:14;25.10;49.70
63371;DHT22;49504;48.336;14.472;2023-05-07T01:58:36;25.00;49.70
63371;DHT22;49504;48.336;14.472;2023-05-07T02:01:57;25.10;49.60
63371;DHT22;49504;48.336;14.472;2023-05-07T02:05:19;25.10;49.60
63371;DHT22;49504;48.336;14.472;2023-05-07T02:08:45;25.00;49.50
63371;DHT22;49504;48.336;14.472;2023-05-07T02:12:07;25.10;49.50
63371;DHT22;49504;48.336;14.472;2023-05-07T02:15:30;25.10;49.50
63371;DHT22;49504;48.336;14.472;2023-05-07T02:18:54;25.10;49.50
63371;DHT22;49504;48.336;14.472;2023-05-07T02:22:15;25.00;49.50
63371;DHT22;49504;48.336;14.472;2023-05-07T02:26:46;25.00;48.90
63371;DHT22;49504;48.336;14.472;2023-05-07T02:30:08;25.10;49.70
63371;DHT22;49504;48.336;14.472;2023-05-07T02:33:30;25.00;49.60
63371;DHT22;49504;48.336;14.472;2023-05-07T02:36:51;25.10;49.50
63371;DHT22;49504;48.336;14.472;2023-05-07T02:40:54;25.10;49.00
63371;DHT22;49504;48.336;14.472;2023-05-07T02:44:15;25.10;49.70
63371;DHT22;49504;48.336;14.472;2023-05-07T02:47:38;25.10;49.70
63371;DHT22;49504;48.336;14.472;2023-05-07T02:50:59;25.10;49.70
63371;DHT22;49504;48.336;14.472;2023-05-07T02:54:21;25.10;49.70
63371;DHT22;49504;48.336;14.472;2023-05-07T02:57:44;25.10;49.60
63371;DHT22;49504;48.336;14.472;2023-05-07T03:01:05;25.10;49.60
63371;DHT22;49504;48.336;14.472;2023-05-07T03:04:34;25.10;49.60
63371;DHT22;49504;48.336;14.472;2023-05-07T03:07:55;25.00;49.50
63371;DHT22;49504;48.336;14.472;2023-05-07T03:11:17;25.10;49.90
63371;DHT22;49504;48.336;14.472;2023-05-07T03:14:39;25.10;49.70
63371;DHT22;49504;48.336;14.472;2023-05-07T03:18:00;25.10;50.00
63371;DHT22;49504;48.336;14.472;2023-05-07T03:21:21;25.10;50.00
63371;DHT22;49504;48.336;14.472;2023-05-07T03:24:43;25.10;49.60
63371;DHT22;49504;48.336;14.472;2023-05-07T03:28:04;25.10;49.60
63371;DHT22;49504;48.336;14.472;2023-05-07T03:31:35;25.00;49.40
63371;DHT22;49504;48.336;14.472;2023-05-07T03:34:56;25.00;49.40
63371;DHT22;49504;48.336;14.472;2023-05-07T03:38:17;25.00;49.40
63371;DHT22;49504;48.336;14.472;2023-05-07T03:41:39;25.00;49.50
63371;DHT22;49504;48.336;14.472;2023-05-07T03:45:00;25.00;49.60
63371;DHT22;49504;48.336;14.472;2023-05-07T03:48:23;25.10;49.40
63371;DHT22;49504;48.336;14.472;2023-05-07T03:51:46;25.00;49.50
63371;DHT22;49504;48.336;14.472;2023-05-07T03:55:08;25.00;49.40
63371;DHT22;49504;48.336;14.472;2023-05-07T03:58:31;25.00;49.30
63371;DHT22;49504;48.336;14.472;2023-05-07T04:01:56;25.00;49.30
63371;DHT22;49504;48.336;14.472;2023-05-07T04:05:21;25.00;49.40
63371;DHT22;49504;48.336;14.472;2023-05-07T04:08:53;25.00;49.30
63371;DHT22;49504;48.336;14.472;2023-05-07T04:12:19;25.00;49.60
63371;DHT22;49504;48.336;14.472;2023-05-07T04:15:43;25.00;49.60
63371;DHT22;49504;48.336;14.472;2023-05-07T04:19:25;25.00;49.60
63371;DHT22;49504;48.336;14.472;2023-05-07T04:22:49;25.00;49.40
63371;DHT22;49504;48.336;14.472;2023-05-07T04:26:10;25.00;49.40
63371;DHT22;49504;48.336;14.472;2023-05-07T04:29:35;25.00;49.60
63371;DHT22;49504;48.336;14.472;2023-05-07T04:32:58;25.00;49.70
63371;DHT22;49504;48.336;14.472;2023-05-07T04:36:23;25.00;49.60
63371;DHT22;49504;48.336;14.472;2023-05-07T04:39:54;25.00;49.30
63371;DHT22;49504;48.336;14.472;2023-05-07T04:43:17;25.00;49.30
63371;DHT22;49504;48.336;14.472;2023-05-07T04:46:43;25.00;49.20
63371;DHT22;49504;48.336;14.472;2023-05-07T04:52:29;25.00;48.80
63371;DHT22;49504;48.336;14.472;2023-05-07T04:55:55;25.00;49.50
63371;DHT22;49504;48.336;14.472;2023-05-07T04:59:17;25.00;49.60
63371;DHT22;49504;48.336;14.472;2023-05-07T05:02:39;25.00;49.50
63371;DHT22;49504;48.336;14.472;2023-05-07T05:06:01;25.00;49.30
63371;DHT22;49504;48.336;14.472;2023-05-07T05:09:27;25.00;49.50
63371;DHT22;49504;48.336;14.472;2023-05-07T05:12:48;25.00;49.40
63371;DHT22;49504;48.336;14.472;2023-05-07T05:16:10;25.00;49.50
63371;DHT22;49504;48.336;14.472;2023-05-07T05:22:27;25.00;49.10
63371;DHT22;49504;48.336;14.472;2023-05-07T05:25:50;25.00;49.90
63371;DHT22;49504;48.336;14.472;2023-05-07T05:29:12;25.00;49.70
63371;DHT22;49504;48.336;14.472;2023-05-07T05:32:36;25.00;49.70
63371;DHT22;49504;48.336;14.472;2023-05-07T05:35:57;25.00;49.50
63371;DHT22;49504;48.336;14.472;2023-05-07T05:39:20;25.00;49.60
63371;DHT22;49504;48.336;14.472;2023-05-07T05:42:41;25.00;49.30
63371;DHT22;49504;48.336;14.472;2023-05-07T05:46:04;25.10;47.30
63371;DHT22;49504;48.336;14.472;2023-05-07T05:49:26;25.10;46.10
63371;DHT22;49504;48.336;14.472;2023-05-07T05:52:48;25.00;46.10
63371;DHT22;49504;48.336;14.472;2023-05-07T05:56:13;25.00;47.00
63371;DHT22;49504;48.336;14.472;2023-05-07T05:59:35;25.00;47.20
63371;DHT22;49504;48.336;14.472;2023-05-07T06:02:56;25.00;47.50
63371;DHT22;49504;48.336;14.472;2023-05-07T06:06:20;25.00;47.80
63371;DHT22;49504;48.336;14.472;2023-05-07T06:09:41;25.00;47.90
63371;DHT22;49504;48.336;14.472;2023-05-07T06:13:04;25.00;48.20
63371;DHT22;49504;48.336;14.472;2023-05-07T06:16:29;25.00;47.80
63371;DHT22;49504;48.336;14.472;2023-05-07T06:19:51;25.00;46.70
63371;DHT22;49504;48.336;14.472;2023-05-07T06:23:14;24.90;46.00
63371;DHT22;49504;48.336;14.472;2023-05-07T06:26:36;24.90;45.70
63371;DHT22;49504;48.336;14.472;2023-05-07T06:30:00;24.90;45.90
63371;DHT22;49504;48.336;14.472;2023-05-07T06:33:22;24.90;45.80
63371;DHT22;49504;48.336;14.472;2023-05-07T06:36:44;24.90;46.80
63371;DHT22;49504;48.336;14.472;2023-05-07T06:40:16;24.90;45.70
63371;DHT22;49504;48.336;14.472;2023-05-07T06:43:39;24.90;47.80
63371;DHT22;49504;48.336;14.472;2023-05-07T06:47:21;24.80;45.60
63371;DHT22;49504;48.336;14.472;2023-05-07T06:50:46;24.80;45.50
63371;DHT22;49504;48.336;14.472;2023-05-07T06:54:07;24.80;45.90
63371;DHT22;49504;48.336;14.472;2023-05-07T06:57:42;24.80;45.10
63371;DHT22;49504;48.336;14.472;2023-05-07T07:01:03;24.80;45.20
63371;DHT22;49504;48.336;14.472;2023-05-07T07:04:25;24.80;45.10
63371;DHT22;49504;48.336;14.472;2023-05-07T07:07:54;24.80;45.50
63371;DHT22;49504;48.336;14.472;2023-05-07T07:11:16;24.80;45.70
63371;DHT22;49504;48.336;14.472;2023-05-07T07:14:38;24.80;45.40
63371;DHT22;49504;48.336;14.472;2023-05-07T07:17:59;24.80;45.30
63371;DHT22;49504;48.336;14.472;2023-05-07T07:21:21;24.80;45.70
63371;DHT22;49504;48.336;14.472;2023-05-07T07:24:42;24.80;45.40
63371;DHT22;49504;48.336;14.472;2023-05-07T07:28:06;24.80;45.50
63371;DHT22;49504;48.336;14.472;2023-05-07T07:31:29;24.80;45.10
63371;DHT22;49504;48.336;14.472;2023-05-07T07:34:50;24.80;44.80
63371;DHT22;49504;48.336;14.472;2023-05-07T07:38:11;24.80;45.00
63371;DHT22;49504;48.336;14.472;2023-05-07T07:41:32;24.80;45.50
63371;DHT22;49504;48.336;14.472;2023-05-07T07:44:54;24.80;45.40
63371;DHT22;49504;48.336;14.472;2023-05-07T07:48:19;24.80;45.40
63371;DHT22;49504;48.336;14.472;2023-05-07T07:51:40;24.80;45.80
63371;DHT22;49504;48.336;14.472;2023-05-07T07:55:04;24.80;46.00
63371;DHT22;49504;48.336;14.472;2023-05-07T07:58:26;24.80;46.10
63371;DHT22;49504;48.336;14.472;2023-05-07T08:01:48;24.80;46.20
63371;DHT22;49504;48.336;14.472;2023-05-07T08:05:11;24.80;46.40
63371;DHT22;49504;48.336;14.472;2023-05-07T08:08:33;24.80;46.50
63371;DHT22;49504;48.336;14.472;2023-05-07T08:11:55;24.80;46.60
63371;DHT22;49504;48.336;14.472;2023-05-07T08:15:17;24.80;46.90
63371;DHT22;49504;48.336;14.472;2023-05-07T08:18:39;24.80;47.00
63371;DHT22;49504;48.336;14.472;2023-05-07T08:22:02;24.80;47.30
63371;DHT22;49504;48.336;14.472;2023-05-07T08:25:24;24.80;47.50
63371;DHT22;49504;48.336;14.472;2023-05-07T08:28:45;24.90;47.50
63371;DHT22;49504;48.336;14.472;2023-05-07T08:32:06;24.80;47.30
63371;DHT22;49504;48.336;14.472;2023-05-07T08:35:28;24.80;47.30
63371;DHT22;49504;48.336;14.472;2023-05-07T08:38:58;24.80;47.60
63371;DHT22;49504;48.336;14.472;2023-05-07T08:42:30;24.80;47.90
63371;DHT22;49504;48.336;14.472;2023-05-07T08:45:54;24.80;47.80
63371;DHT22;49504;48.336;14.472;2023-05-07T08:49:21;24.80;48.30
63371;DHT22;49504;48.336;14.472;2023-05-07T08:52:45;24.90;48.60
63371;DHT22;49504;48.336;14.472;2023-05-07T08:56:10;24.90;48.20
63371;DHT22;49504;48.336;14.472;2023-05-07T08:59:33;24.80;48.70
63371;DHT22;49504;48.336;14.472;2023-05-07T09:03:00;24.90;48.70
63371;DHT22;49504;48.336;14.472;2023-05-07T09:06:22;24.90;48.80
63371;DHT22;49504;48.336;14.472;2023-05-07T09:09:45;24.90;48.90
63371;DHT22;49504;48.336;14.472;2023-05-07T09:13:11;24.90;48.60
63371;DHT22;49504;48.336;14.472;2023-05-07T09:16:33;24.90;48.60
63371;DHT22;49504;48.336;14.472;2023-05-07T09:19:55;24.90;48.40
63371;DHT22;49504;48.336;14.472;2023-05-07T09:23:18;24.90;48.50
63371;DHT22;49504;48.336;14.472;2023-05-07T09:26:41;24.90;48.50
63371;DHT22;49504;48.336;14.472;2023-05-07T09:30:07;24.90;48.30
63371;DHT22;49504;48.336;14.472;2023-05-07T09:33:29;24.90;48.60
63371;DHT22;49504;48.336;14.472;2023-05-07T09:36:51;24.90;48.40
63371;DHT22;49504;48.336;14.472;2023-05-07T09:40:21;24.90;48.20
63371;DHT22;49504;48.336;14.472;2023-05-07T09:43:42;24.90;48.20
63371;DHT22;49504;48.336;14.472;2023-05-07T09:47:08;24.90;48.40
63371;DHT22;49504;48.336;14.472;2023-05-07T09:50:36;24.90;48.80
63371;DHT22;49504;48.336;14.472;2023-05-07T09:54:02;25.00;48.80
63371;DHT22;49504;48.336;14.472;2023-05-07T09:57:27;25.00;48.60
63371;DHT22;49504;48.336;14.472;2023-05-07T10:00:54;25.00;48.80
63371;DHT22;49504;48.336;14.472;2023-05-07T10:04:18;25.00;49.00
63371;DHT22;49504;48.336;14.472;2023-05-07T10:07:40;25.00;49.10
63371;DHT22;49504;48.336;14.472;2023-05-07T10:11:04;25.00;49.30
63371;DHT22;49504;48.336;14.472;2023-05-07T10:14:28;25.00;49.40
63371;DHT22;49504;48.336;14.472;2023-05-07T10:17:49;25.00;49.40
63371;DHT22;49504;48.336;14.472;2023-05-07T10:21:17;25.10;49.70
63371;DHT22;49504;48.336;14.472;2023-05-07T10:27:34;25.10;48.70
63371;DHT22;49504;48.336;14.472;2023-05-07T10:31:07;25.10;49.90
63371;DHT22;49504;48.336;14.472;2023-05-07T10:34:40;25.10;49.90
63371;DHT22;49504;48.336;14.472;2023-05-07T10:38:05;25.10;50.10
63371;DHT22;49504;48.336;14.472;2023-05-07T10:41:28;25.10;50.10
63371;DHT22;49504;48.336;14.472;2023-05-07T10:44:51;25.10;50.10
63371;DHT22;49504;48.336;14.472;2023-05-07T10:50:24;25.10;49.20
63371;DHT22;49504;48.336;14.472;2023-05-07T10:53:48;25.10;49.90
63371;DHT22;49504;48.336;14.472;2023-05-07T10:58:47;25.10;49.20
63371;DHT22;49504;48.336;14.472;2023-05-07T11:03:05;25.20;49.50
63371;DHT22;49504;48.336;14.472;2023-05-07T11:07:27;25.20;50.00
63371;DHT22;49504;48.336;14.472;2023-05-07T11:11:48;25.20;49.40
63371;DHT22;49504;48.336;14.472;2023-05-07T11:15:38;25.20;50.20
63371;DHT22;49504;48.336;14.472;2023-05-07T11:19:50;25.20;50.20
63371;DHT22;49504;48.336;14.472;2023-05-07T11:27:39;25.20;50.30
63371;DHT22;49504;48.336;14.472;2023-05-07T11:31:00;25.20;50.50
63371;DHT22;49504;48.336;14.472;2023-05-07T11:34:22;25.20;50.50
63371;DHT22;49504;48.336;14.472;2023-05-07T11:37:45;25.20;50.50
63371;DHT22;49504;48.336;14.472;2023-05-07T11:41:07;25.30;50.60
63371;DHT22;49504;48.336;14.472;2023-05-07T11:44:45;25.20;50.00
63371;DHT22;49504;48.336;14.472;2023-05-07T11:48:06;25.30;50.10
63371;DHT22;49504;48.336;14.472;2023-05-07T11:51:41;25.20;49.50
63371;DHT22;49504;48.336;14.472;2023-05-07T11:55:03;25.20;50.00
63371;DHT22;49504;48.336;14.472;2023-05-07T11:58:25;25.30;50.00
63371;DHT22;49504;48.336;14.472;2023-05-07T12:01:46;25.30;50.10
63371;DHT22;49504;48.336;14.472;2023-05-07T12:05:08;25.30;50.10
63371;DHT22;49504;48.336;14.472;2023-05-07T12:08:30;25.20;50.10
63371;DHT22;49504;48.336;14.472;2023-05-07T12:11:52;25.30;50.00
63371;DHT22;49504;48.336;14.472;2023-05-07T12:15:52;25.30;49.40
63371;DHT22;49504;48.336;14.472;2023-05-07T12:19:14;25.30;50.10
63371;DHT22;49504;48.336;14.472;2023-05-07T12:22:36;25.30;50.10
63371;DHT22;49504;48.336;14.472;2023-05-07T12:25:57;25.30;50.20
63371;DHT22;49504;48.336;14.472;2023-05-07T12:29:21;25.30;50.00
63371;DHT22;49504;48.336;14.472;2023-05-07T12:32:45;25.30;50.00
63371;DHT22;49504;48.336;14.472;2023-05-07T12:36:07;25.30;50.00
63371;DHT22;49504;48.336;14.472;2023-05-07T12:39:28;25.30;49.80
63371;DHT22;49504;48.336;14.472;2023-05-07T12:42:53;25.30;49.70
63371;DHT22;49504;48.336;14.472;2023-05-07T12:46:16;25.30;49.70
63371;DHT22;49504;48.336;14.472;2023-05-07T12:49:38;25.30;49.80
63371;DHT22;49504;48.336;14.472;2023-05-07T12:53:00;25.30;49.80
63371;DHT22;49504;48.336;14.472;2023-05-07T12:56:24;25.30;49.90
63371;DHT22;49504;48.336;14.472;2023-05-07T12:59:45;25.40;49.90
63371;DHT22;49504;48.336;14.472;2023-05-07T13:03:06;25.30;50.00
63371;DHT22;49504;48.336;14.472;2023-05-07T13:06:30;25.30;50.00
63371;DHT22;49504;48.336;14.472;2023-05-07T13:09:51;25.40;50.10
63371;DHT22;49504;48.336;14.472;2023-05-07T13:13:12;25.40;50.10
63371;DHT22;49504;48.336;14.472;2023-05-07T13:16:33;25.40;50.20
63371;DHT22;49504;48.336;14.472;2023-05-07T13:19:54;25.40;50.10
63371;DHT22;49504;48.336;14.472;2023-05-07T13:23:17;25.40;50.00
63371;DHT22;49504;48.336;14.472;2023-05-07T13:26:38;25.40;50.00
63371;DHT22;49504;48.336;14.472;2023-05-07T13:32:04;25.30;49.10
63371;DHT22;49504;48.336;14.472;2023-05-07T13:35:26;25.40;49.80
63371;DHT22;49504;48.336;14.472;2023-05-07T13:38:58;25.40;49.20
63371;DHT22;49504;48.336;14.472;2023-05-07T13:42:21;25.40;49.70
63371;DHT22;49504;48.336;14.472;2023-05-07T13:45:42;25.40;50.00
63371;DHT22;49504;48.336;14.472;2023-05-07T13:49:03;25.40;49.60
63371;DHT22;49504;48.336;14.472;2023-05-07T13:52:24;25.40;49.70
63371;DHT22;49504;48.336;14.472;2023-05-07T13:55:46;25.40;49.60
63371;DHT22;49504;48.336;14.472;2023-05-07T13:59:08;25.40;49.50
63371;DHT22;49504;48.336;14.472;2023-05-07T14:02:29;25.40;49.30
63371;DHT22;49504;48.336;14.472;2023-05-07T14:05:51;25.40;49.20
63371;DHT22;49504;48.336;14.472;2023-05-07T14:09:12;25.40;49.30
63371;DHT22;49504;48.336;14.472;2023-05-07T14:12:34;25.40;49.50
63371;DHT22;49504;48.336;14.472;2023-05-07T14:15:55;25.30;49.20
63371;DHT22;49504;48.336;14.472;2023-05-07T14:19:17;25.40;49.10
63371;DHT22;49504;48.336;14.472;2023-05-07T14:22:39;25.40;49.10
63371;DHT22;49504;48.336;14.472;2023-05-07T14:26:00;25.40;49.10
63371;DHT22;49504;48.336;14.472;2023-05-07T14:29:23;25.40;49.10
63371;DHT22;49504;48.336;14.472;2023-05-07T14:32:44;25.40;49.10
63371;DHT22;49504;48.336;14.472;2023-05-07T14:36:06;25.40;49.10
63371;DHT22;49504;48.336;14.472;2023-05-07T14:39:27;25.40;49.20
63371;DHT22;49504;48.336;14.472;2023-05-07T14:42:48;25.40;49.20
63371;DHT22;49504;48.336;14.472;2023-05-07T14:46:11;25.40;49.20
63371;DHT22;49504;48.336;14.472;2023-05-07T14:49:32;25.40;49.10
63371;DHT22;49504;48.336;14.472;2023-05-07T14:52:53;25.40;49.10
63371;DHT22;49504;48.336;14.472;2023-05-07T14:56:14;25.40;49.00
63371;DHT22;49504;48.336;14.472;2023-05-07T14:59:36;25.40;48.90
63371;DHT22;49504;48.336;14.472;2023-05-07T15:03:05;25.30;48.90
63371;DHT22;49504;48.336;14.472;2023-05-07T15:06:26;25.30;48.70
63371;DHT22;49504;48.336;14.472;2023-05-07T15:09:47;25.40;48.90
63371;DHT22;49504;48.336;14.472;2023-05-07T15:13:09;25.40;48.90
63371;DHT22;49504;48.336;14.472;2023-05-07T15:16:31;25.30;48.90
63371;DHT22;49504;48.336;14.472;2023-05-07T15:23:29;25.30;48.40
63371;DHT22;49504;48.336;14.472;2023-05-07T15:26:51;25.30;48.80
63371;DHT22;49504;48.336;14.472;2023-05-07T15:30:13;25.30;48.90
63371;DHT22;49504;48.336;14.472;2023-05-07T15:33:49;25.30;48.40
63371;DHT22;49504;48.336;14.472;2023-05-07T15:37:10;25.30;48.90
63371;DHT22;49504;48.336;14.472;2023-05-07T15:40:31;25.30;48.90
63371;DHT22;49504;48.336;14.472;2023-05-07T15:43:52;25.30;49.00
63371;DHT22;49504;48.336;14.472;2023-05-07T15:47:13;25.30;49.00
63371;DHT22;49504;48.336;14.472;2023-05-07T15:53:34;25.30;48.50
63371;DHT22;49504;48.336;14.472;2023-05-07T15:56:55;25.30;49.20
63371;DHT22;49504;48.336;14.472;2023-05-07T16:02:47;25.30;48.60
63371;DHT22;49504;48.336;14.472;2023-05-07T16:06:09;25.30;49.10
63371;DHT22;49504;48.336;14.472;2023-05-07T16:09:30;25.30;49.30
63371;DHT22;49504;48.336;14.472;2023-05-07T16:12:52;25.30;49.20
63371;DHT22;49504;48.336;14.472;2023-05-07T16:16:13;25.30;49.40
63371;DHT22;49504;48.336;14.472;2023-05-07T16:19:35;25.30;49.40
63371;DHT22;49504;48.336;14.472;2023-05-07T16:22:57;25.30;49.50
63371;DHT22;49504;48.336;14.472;2023-05-07T16:26:18;25.30;49.50
63371;DHT22;49504;48.336;14.472;2023-05-07T16:29:39;25.30;49.30
63371;DHT22;49504;48.336;14.472;2023-05-07T16:33:00;25.30;49.20
63371;DHT22;49504;48.336;14.472;2023-05-07T16:36:26;25.20;49.10
63371;DHT22;49504;48.336;14.472;2023-05-07T16:39:47;25.30;49.20
63371;DHT22;49504;48.336;14.472;2023-05-07T16:43:08;25.30;49.10
63371;DHT22;49504;48.336;14.472;2023-05-07T16:46:29;25.30;49.10
63371;DHT22;49504;48.336;14.472;2023-05-07T16:49:51;25.20;49.00
63371;DHT22;49504;48.336;14.472;2023-05-07T16:53:13;25.30;49.10
63371;DHT22;49504;48.336;14.472;2023-05-07T16:56:34;25.30;49.10
63371;DHT22;49504;48.336;14.472;2023-05-07T16:59:56;25.30;49.10
63371;DHT22;49504;48.336;14.472;2023-05-07T17:03:17;25.30;49.10
63371;DHT22;49504;48.336;14.472;2023-05-07T17:06:38;25.30;49.10
63371;DHT22;49504;48.336;14.472;2023-05-07T17:11:05;25.30;48.50
63371;DHT22;49504;48.336;14.472;2023-05-07T17:14:27;25.20;49.00
63371;DHT22;49504;48.336;14.472;2023-05-07T17:17:48;25.20;49.10
63371;DHT22;49504;48.336;14.472;2023-05-07T17:21:09;25.20;49.10
63371;DHT22;49504;48.336;14.472;2023-05-07T17:24:30;25.20;49.20
63371;DHT22;49504;48.336;14.472;2023-05-07T17:27:55;25.30;49.20
63371;DHT22;49504;48.336;14.472;2023-05-07T17:31:16;25.20;49.10
63371;DHT22;49504;48.336;14.472;2023-05-07T17:34:37;25.20;49.20
63371;DHT22;49504;48.336;14.472;2023-05-07T17:37:59;25.20;49.10
63371;DHT22;49504;48.336;14.472;2023-05-07T17:41:22;25.20;49.60
63371;DHT22;49504;48.336;14.472;2023-05-07T17:44:44;25.20;49.30
63371;DHT22;49504;48.336;14.472;2023-05-07T17:48:05;25.20;49.40
63371;DHT22;49504;48.336;14.472;2023-05-07T17:51:26;25.20;49.40
63371;DHT22;49504;48.336;14.472;2023-05-07T17:54:48;25.20;49.40
63371;DHT22;49504;48.336;14.472;2023-05-07T17:58:09;25.20;49.40
63371;DHT22;49504;48.336;14.472;2023-05-07T18:01:31;25.20;49.40
63371;DHT22;49504;48.336;14.472;2023-05-07T18:04:52;25.20;49.40
63371;DHT22;49504;48.336;14.472;2023-05-07T18:08:13;25.20;49.40
63371;DHT22;49504;48.336;14.472;2023-05-07T18:11:34;25.20;49.40
63371;DHT22;49504;48.336;14.472;2023-05-07T18:14:56;25.20;49.30
63371;DHT22;49504;48.336;14.472;2023-05-07T18:18:18;25.20;49.40
63371;DHT22;49504;48.336;14.472;2023-05-07T18:21:39;25.20;49.30
63371;DHT22;49504;48.336;14.472;2023-05-07T18:25:00;25.10;49.30
63371;DHT22;49504;48.336;14.472;2023-05-07T18:28:21;25.10;49.20
63371;DHT22;49504;48.336;14.472;2023-05-07T18:34:54;25.10;48.60
63371;DHT22;49504;48.336;14.472;2023-05-07T18:38:15;25.10;49.10
63371;DHT22;49504;48.336;14.472;2023-05-07T18:41:36;25.10;49.10
63371;DHT22;49504;48.336;14.472;2023-05-07T18:44:57;25.10;49.00
63371;DHT22;49504;48.336;14.472;2023-05-07T18:49:33;25.10;48.50
63371;DHT22;49504;48.336;14.472;2023-05-07T18:52:54;25.10;48.90
63371;DHT22;49504;48.336;14.472;2023-05-07T18:56:15;25.10;49.10
63371;DHT22;49504;48.336;14.472;2023-05-07T18:59:36;25.10;49.10
63371;DHT22;49504;48.336;14.472;2023-05-07T19:02:57;25.10;49.00
63371;DHT22;49504;48.336;14.472;2023-05-07T19:06:20;25.10;48.90
63371;DHT22;49504;48.336;14.472;2023-05-07T19:09:41;25.10;48.90
63371;DHT22;49504;48.336;14.472;2023-05-07T19:13:02;25.10;49.10
63371;DHT22;49504;48.336;14.472;2023-05-07T19:16:23;25.10;49.10
63371;DHT22;49504;48.336;14.472;2023-05-07T19:19:44;25.10;49.10
63371;DHT22;49504;48.336;14.472;2023-05-07T19:23:07;25.10;49.00
63371;DHT22;49504;48.336;14.472;2023-05-07T19:26:28;25.10;49.00
63371;DHT22;49504;48.336;14.472;2023-05-07T19:29:49;25.10;49.00
63371;DHT22;49504;48.336;14.472;2023-05-07T19:34:24;25.10;48.40
63371;DHT22;49504;48.336;14.472;2023-05-07T19:37:46;25.10;49.00
63371;DHT22;49504;48.336;14.472;2023-05-07T19:41:57;25.10;48.40
63371;DHT22;49504;48.336;14.472;2023-05-07T19:45:18;25.10;48.90
63371;DHT22;49504;48.336;14.472;2023-05-07T19:48:39;25.10;48.90
63371;DHT22;49504;48.336;14.472;2023-05-07T19:52:00;25.10;48.90
63371;DHT22;49504;48.336;14.472;2023-05-07T19:55:22;25.10;49.00
63371;DHT22;49504;48.336;14.472;2023-05-07T19:58:44;25.10;49.00
63371;DHT22;49504;48.336;14.472;2023-05-07T20:02:05;25.10;49.00
63371;DHT22;49504;48.336;14.472;2023-05-07T20:05:27;25.10;48.90
63371;DHT22;49504;48.336;14.472;2023-05-07T20:08:48;25.10;48.90
63371;DHT22;49504;48.336;14.472;2023-05-07T20:13:12;25.10;48.30
63371;DHT22;49504;48.336;14.472;2023-05-07T20:16:33;25.00;48.50
63371;DHT22;49504;48.336;14.472;2023-05-07T20:19:54;25.10;48.60
63371;DHT22;49504;48.336;14.472;2023-05-07T20:23:15;25.10;48.40
63371;DHT22;49504;48.336;14.472;2023-05-07T20:28:37;25.00;47.90
63371;DHT22;49504;48.336;14.472;2023-05-07T20:31:58;25.00;48.20
63371;DHT22;49504;48.336;14.472;2023-05-07T20:35:19;25.10;48.60
63371;DHT22;49504;48.336;14.472;2023-05-07T20:38:40;25.10;48.60
63371;DHT22;49504;48.336;14.472;2023-05-07T20:42:01;25.10;48.60
63371;DHT22;49504;48.336;14.472;2023-05-07T20:45:24;25.00;48.50
63371;DHT22;49504;48.336;14.472;2023-05-07T20:48:45;25.10;48.60
63371;DHT22;49504;48.336;14.472;2023-05-07T20:52:06;25.10;48.60
63371;DHT22;49504;48.336;14.472;2023-05-07T20:55:27;25.10;48.60
63371;DHT22;49504;48.336;14.472;2023-05-07T20:58:48;25.10;48.70
63371;DHT22;49504;48.336;14.472;2023-05-07T21:02:11;25.10;48.70
63371;DHT22;49504;48.336;14.472;2023-05-07T21:05:32;25.10;48.70
63371;DHT22;49504;48.336;14.472;2023-05-07T21:09:23;25.10;48.10
63371;DHT22;49504;48.336;14.472;2023-05-07T21:12:45;25.10;48.70
63371;DHT22;49504;48.336;14.472;2023-05-07T21:16:06;25.10;48.80
63371;DHT22;49504;48.336;14.472;2023-05-07T21:19:27;25.10;48.70
63371;DHT22;49504;48.336;14.472;2023-05-07T21:22:48;25.10;48.80
63371;DHT22;49504;48.336;14.472;2023-05-07T21:26:16;25.10;48.80
63371;DHT22;49504;48.336;14.472;2023-05-07T21:29:38;25.10;48.80
63371;DHT22;49504;48.336;14.472;2023-05-07T21:32:59;25.10;48.90
63371;DHT22;49504;48.336;14.472;2023-05-07T21:36:20;25.10;48.80
63371;DHT22;49504;48.336;14.472;2023-05-07T21:39:51;25.00;48.10
63371;DHT22;49504;48.336;14.472;2023-05-07T21:43:13;25.10;48.70
63371;DHT22;49504;48.336;14.472;2023-05-07T21:46:34;25.00;48.70